createdAt,value
2023-03-22T00:00:30.541Z,97539.75
2023-03-22T00:02:58.438Z,97542.75
2023-03-22T00:05:25.952Z,97544.69
2023-03-22T00:07:58.161Z,97546.09
2023-03-22T00:10:27.635Z,97543.22
2023-03-22T00:12:55.743Z,97547.00
2023-03-22T00:15:23.730Z,97554.41
2023-03-22T00:17:52.017Z,97540.53
2023-03-22T00:20:20.864Z,97533.22
2023-03-22T00:22:48.355Z,97531.50
2023-03-22T00:25:16.192Z,97543.44
2023-03-22T00:27:44.089Z,97529.41
2023-03-22T00:30:12.127Z,97532.09
2023-03-22T00:32:39.902Z,97531.84
2023-03-22T00:35:08.134Z,97529.16
2023-03-22T00:37:38.865Z,97531.63
2023-03-22T00:40:12.476Z,97533.47
2023-03-22T00:42:41.723Z,97528.94
2023-03-22T00:45:11.558Z,97518.84
2023-03-22T00:47:39.477Z,97522.34
2023-03-22T00:50:07.900Z,97514.09
2023-03-22T00:52:35.618Z,97509.25
2023-03-22T00:55:03.223Z,97507.63
2023-03-22T00:57:30.850Z,97507.16
2023-03-22T00:59:58.635Z,97502.31
2023-03-22T01:02:29.929Z,97486.88
2023-03-22T01:04:58.016Z,97493.25
2023-03-22T01:07:26.842Z,97491.97
2023-03-22T01:09:54.850Z,97489.44
2023-03-22T01:12:22.368Z,97485.28
2023-03-22T01:14:49.970Z,97488.66
2023-03-22T01:17:17.688Z,97486.13
2023-03-22T01:19:45.493Z,97492.13
2023-03-22T01:22:13.146Z,97494.47
2023-03-22T01:24:40.966Z,97494.69
2023-03-22T01:27:08.490Z,97484.63
2023-03-22T01:29:36.057Z,97477.88
2023-03-22T01:32:04.362Z,97478.81
2023-03-22T01:34:32.342Z,97476.50
2023-03-22T01:37:00.920Z,97483.00
2023-03-22T01:39:29.773Z,97478.69
2023-03-22T01:41:59.793Z,97479.97
2023-03-22T01:44:30.942Z,97475.13
2023-03-22T01:47:00.351Z,97461.72
2023-03-22T01:49:34.636Z,97474.44
2023-03-22T01:52:07.023Z,97470.38
2023-03-22T01:54:54.397Z,97463.91
2023-03-22T01:58:01.875Z,97465.97
2023-03-22T02:00:41.162Z,97460.78
2023-03-22T02:03:41.580Z,97455.69
2023-03-22T02:06:11.916Z,97451.97
2023-03-22T02:08:40.964Z,97458.22
2023-03-22T02:11:25.363Z,97444.91
2023-03-22T02:14:20.369Z,97448.50
2023-03-22T02:18:18.672Z,97442.59
2023-03-22T02:21:06.227Z,97454.22
2023-03-22T02:23:54.517Z,97462.66
2023-03-22T02:26:50.433Z,97456.03
2023-03-22T02:29:34.055Z,97467.38
2023-03-22T02:32:07.690Z,97472.19
2023-03-22T02:35:02.136Z,97470.59
2023-03-22T02:37:37.115Z,97467.19
2023-03-22T02:40:31.195Z,97470.09
2023-03-22T02:43:11.106Z,97473.41
2023-03-22T02:45:54.003Z,97468.44
2023-03-22T02:48:30.989Z,97465.78
2023-03-22T02:51:18.482Z,97464.03
2023-03-22T02:54:03.985Z,97460.97
2023-03-22T02:56:48.188Z,97465.72
2023-03-22T02:59:19.965Z,97462.03
2023-03-22T03:01:52.067Z,97454.66
2023-03-22T03:04:30.408Z,97456.13
2023-03-22T03:07:12.033Z,97448.50
2023-03-22T03:09:42.183Z,97449.34
2023-03-22T03:12:19.661Z,97458.13
2023-03-22T03:14:47.421Z,97447.69
2023-03-22T03:17:42.748Z,97452.66
2023-03-22T03:20:30.265Z,97447.19
2023-03-22T03:23:22.388Z,97450.53
2023-03-22T03:26:17.340Z,97443.00
2023-03-22T03:29:16.437Z,97450.03
2023-03-22T03:32:04.729Z,97463.16
2023-03-22T03:34:39.886Z,97463.69
2023-03-22T03:37:18.791Z,97459.88
2023-03-22T03:39:56.262Z,97461.28
2023-03-22T03:42:27.627Z,97461.72
2023-03-22T03:44:56.366Z,97455.00
2023-03-22T03:47:25.419Z,97461.03
2023-03-22T03:49:53.029Z,97457.34
2023-03-22T03:52:24.747Z,97452.03
2023-03-22T03:54:52.818Z,97463.31
2023-03-22T03:57:27.333Z,97463.78
2023-03-22T03:59:55.103Z,97461.31
2023-03-22T04:02:44.556Z,97455.06
2023-03-22T04:05:26.696Z,97462.00
2023-03-22T04:07:54.237Z,97460.44
2023-03-22T04:10:21.996Z,97456.00
2023-03-22T04:12:49.605Z,97463.16
2023-03-22T04:15:18.440Z,97456.44
2023-03-22T04:17:54.022Z,97461.97
2023-03-22T04:20:26.375Z,97457.31
2023-03-22T04:22:56.952Z,97455.72
2023-03-22T04:25:30.455Z,97452.00
2023-03-22T04:28:10.866Z,97448.13
2023-03-22T04:30:39.132Z,97444.66
2023-03-22T04:33:32.669Z,97445.97
2023-03-22T04:36:17.609Z,97446.84
2023-03-22T04:39:10.831Z,97443.88
2023-03-22T04:41:39.341Z,97444.09
2023-03-22T04:44:07.887Z,97437.59
2023-03-22T04:46:39.368Z,97430.28
2023-03-22T04:49:07.809Z,97437.66
2023-03-22T04:51:39.210Z,97434.19
2023-03-22T04:54:23.440Z,97430.16
2023-03-22T04:56:51.880Z,97433.25
2023-03-22T04:59:22.237Z,97439.34
2023-03-22T05:01:51.744Z,97434.84
2023-03-22T05:04:23.120Z,97430.72
2023-03-22T05:06:57.340Z,97425.41
2023-03-22T05:09:31.788Z,97428.38
2023-03-22T05:11:59.450Z,97419.09
2023-03-22T05:14:48.912Z,97420.16
2023-03-22T05:17:21.735Z,97418.84
2023-03-22T05:19:52.041Z,97413.84
2023-03-22T05:22:22.566Z,97417.09
2023-03-22T05:24:52.012Z,97412.66
2023-03-22T05:27:31.571Z,97415.09
2023-03-22T05:30:25.466Z,97413.66
2023-03-22T05:33:03.372Z,97409.13
2023-03-22T05:35:36.415Z,97412.91
2023-03-22T05:38:05.129Z,97417.47
2023-03-22T05:40:35.482Z,97412.97
2023-03-22T05:43:02.970Z,97418.78
2023-03-22T05:45:32.701Z,97422.53
2023-03-22T05:48:26.853Z,97419.09
2023-03-22T05:50:54.629Z,97425.34
2023-03-22T05:53:22.450Z,97421.16
2023-03-22T05:56:10.067Z,97412.97
2023-03-22T05:58:41.280Z,97411.63
2023-03-22T06:01:13.246Z,97413.69
2023-03-22T06:03:48.590Z,97403.84
2023-03-22T06:06:36.404Z,97401.91
2023-03-22T06:09:17.290Z,97412.59
2023-03-22T06:11:49.611Z,97406.50
2023-03-22T06:14:17.836Z,97404.19
2023-03-22T06:17:03.975Z,97409.00
2023-03-22T06:19:31.965Z,97413.94
2023-03-22T06:22:02.642Z,97412.84
2023-03-22T06:24:32.185Z,97414.25
2023-03-22T06:26:59.827Z,97405.75
2023-03-22T06:29:28.463Z,97412.94
2023-03-22T06:31:58.629Z,97410.22
2023-03-22T06:34:26.622Z,97414.75
2023-03-22T06:36:54.502Z,97401.38
2023-03-22T06:39:34.815Z,97394.59
2023-03-22T06:42:03.298Z,97387.88
2023-03-22T06:44:30.922Z,97395.13
2023-03-22T06:47:19.217Z,97389.28
2023-03-22T06:49:58.573Z,97395.63
2023-03-22T06:52:38.214Z,97398.81
2023-03-22T06:55:08.604Z,97395.91
2023-03-22T06:57:36.252Z,97389.44
2023-03-22T07:00:05.400Z,97390.28
2023-03-22T07:02:33.030Z,97389.69
2023-03-22T07:05:18.923Z,97382.78
2023-03-22T07:07:46.598Z,97388.94
2023-03-22T07:10:14.034Z,97383.25
2023-03-22T07:12:41.779Z,97394.00
2023-03-22T07:15:13.005Z,97398.81
2023-03-22T07:17:51.893Z,97395.09
2023-03-22T07:20:19.872Z,97399.16
2023-03-22T07:22:50.954Z,97393.06
2023-03-22T07:25:20.950Z,97396.28
2023-03-22T07:27:52.617Z,97391.66
2023-03-22T07:30:22.393Z,97394.63
2023-03-22T07:32:50.016Z,97389.53
2023-03-22T07:35:19.085Z,97390.38
2023-03-22T07:37:48.706Z,97391.69
2023-03-22T07:40:23.618Z,97395.22
2023-03-22T07:42:55.824Z,97380.41
2023-03-22T07:45:55.991Z,97386.28
2023-03-22T07:48:42.463Z,97390.88
2023-03-22T07:51:39.532Z,97383.56
2023-03-22T07:54:07.940Z,97391.31
2023-03-22T07:56:35.728Z,97389.44
2023-03-22T07:59:04.279Z,97390.69
2023-03-22T08:01:31.778Z,97388.00
2023-03-22T08:04:11.903Z,97381.63
2023-03-22T08:07:02.885Z,97390.69
2023-03-22T08:09:30.397Z,97390.91
2023-03-22T08:11:58.015Z,97389.16
2023-03-22T08:14:35.844Z,97387.41
2023-03-22T08:17:06.900Z,97390.75
2023-03-22T08:19:35.045Z,97393.97
2023-03-22T08:22:03.446Z,97394.63
2023-03-22T08:24:51.774Z,97388.78
2023-03-22T08:27:31.644Z,97391.13
2023-03-22T08:30:01.117Z,97391.44
2023-03-22T08:32:28.672Z,97393.00
2023-03-22T08:34:56.242Z,97383.25
2023-03-22T08:37:23.944Z,97384.25
2023-03-22T08:39:51.679Z,97385.50
2023-03-22T08:42:26.743Z,97389.91
2023-03-22T08:44:54.380Z,97384.56
2023-03-22T08:47:25.017Z,97380.75
2023-03-22T08:49:57.347Z,97387.06
2023-03-22T08:52:35.779Z,97384.25
2023-03-22T08:55:09.065Z,97384.69
2023-03-22T08:58:04.321Z,97385.03
2023-03-22T09:00:50.044Z,97382.59
2023-03-22T09:03:43.909Z,97373.47
2023-03-22T09:06:11.734Z,97384.56
2023-03-22T09:08:42.164Z,97376.72
2023-03-22T09:11:17.817Z,97368.88
2023-03-22T09:13:48.744Z,97378.50
2023-03-22T09:16:17.066Z,97375.22
2023-03-22T09:18:45.948Z,97365.81
2023-03-22T09:21:17.316Z,97362.59
2023-03-22T09:23:56.615Z,97374.47
2023-03-22T09:26:33.569Z,97362.25
2023-03-22T09:29:01.154Z,97373.97
2023-03-22T09:31:29.389Z,97375.75
2023-03-22T09:34:07.689Z,97366.41
2023-03-22T09:36:35.216Z,97363.25
2023-03-22T09:39:06.818Z,97352.34
2023-03-22T09:41:40.787Z,97355.13
2023-03-22T09:44:16.088Z,97365.84
2023-03-22T09:46:50.386Z,97350.59
2023-03-22T09:49:24.576Z,97360.16
2023-03-22T09:51:54.706Z,97348.88
2023-03-22T09:54:39.210Z,97351.59
2023-03-22T09:57:18.911Z,97337.84
2023-03-22T09:59:52.486Z,97337.66
2023-03-22T10:02:57.274Z,97338.41
2023-03-22T10:05:43.138Z,97339.81
2023-03-22T10:08:27.841Z,97332.16
2023-03-22T10:10:57.532Z,97330.78
2023-03-22T10:13:37.015Z,97325.00
2023-03-22T10:16:10.800Z,97322.50
2023-03-22T10:18:43.865Z,97323.00
2023-03-22T10:21:13.857Z,97325.50
2023-03-22T10:23:49.468Z,97321.78
2023-03-22T10:26:39.538Z,97316.91
2023-03-22T10:29:24.032Z,97318.69
2023-03-22T10:31:51.605Z,97321.00
2023-03-22T10:34:33.789Z,97313.59
2023-03-22T10:37:05.536Z,97314.22
2023-03-22T10:39:38.654Z,97301.34
2023-03-22T10:42:23.256Z,97296.19
2023-03-22T10:44:55.580Z,97291.50
2023-03-22T10:47:48.046Z,97298.38
2023-03-22T10:50:22.771Z,97289.78
2023-03-22T10:52:59.481Z,97292.47
2023-03-22T10:55:27.068Z,97288.38
2023-03-22T10:58:12.860Z,97278.53
2023-03-22T11:00:49.572Z,97277.47
2023-03-22T11:03:40.579Z,97271.91
2023-03-22T11:06:12.599Z,97272.41
2023-03-22T11:08:51.520Z,97273.72
2023-03-22T11:11:45.310Z,97272.78
2023-03-22T11:14:37.763Z,97268.34
2023-03-22T11:17:19.921Z,97267.38
2023-03-22T11:19:58.667Z,97258.50
2023-03-22T11:22:39.593Z,97253.81
2023-03-22T11:25:34.166Z,97252.44
2023-03-22T11:28:04.407Z,97255.44
2023-03-22T11:30:33.465Z,97256.00
2023-03-22T11:33:15.310Z,97253.72
2023-03-22T11:35:46.069Z,97241.03
2023-03-22T11:38:36.756Z,97235.84
2023-03-22T11:41:12.022Z,97237.31
2023-03-22T11:43:48.583Z,97213.94
2023-03-22T11:46:19.510Z,97223.72
2023-03-22T11:48:50.665Z,97212.88
2023-03-22T11:51:28.054Z,97216.25
2023-03-22T11:54:01.682Z,97206.59
2023-03-22T11:56:30.511Z,97203.44
2023-03-22T11:59:05.148Z,97196.72
2023-03-22T12:01:43.312Z,97199.38
2023-03-22T12:04:17.248Z,97209.25
2023-03-22T12:06:45.073Z,97189.84
2023-03-22T12:09:29.025Z,97187.63
2023-03-22T12:11:59.474Z,97178.34
2023-03-22T12:14:39.351Z,97176.69
2023-03-22T12:17:39.619Z,97174.97
2023-03-22T12:20:20.442Z,97172.81
2023-03-22T12:22:52.900Z,97165.25
2023-03-22T12:26:04.566Z,97163.94
2023-03-22T12:28:40.811Z,97159.00
2023-03-22T12:31:21.838Z,97159.06
2023-03-22T12:33:54.167Z,97157.06
2023-03-22T12:36:52.667Z,97160.53
2023-03-22T12:39:35.295Z,97146.28
2023-03-22T12:42:17.970Z,97151.53
2023-03-22T12:44:52.830Z,97144.75
2023-03-22T12:47:38.491Z,97144.97
2023-03-22T12:50:34.350Z,97136.50
2023-03-22T12:53:04.556Z,97131.03
2023-03-22T12:55:36.889Z,97130.84
2023-03-22T12:58:08.847Z,97127.38
2023-03-22T13:00:49.782Z,97128.00
2023-03-22T13:03:20.299Z,97117.81
2023-03-22T13:05:50.820Z,97124.50
2023-03-22T13:08:22.591Z,97120.47
2023-03-22T13:11:05.201Z,97122.06
2023-03-22T13:13:41.775Z,97128.78
2023-03-22T13:16:09.394Z,97117.09
2023-03-22T13:18:37.741Z,97118.53
2023-03-22T13:21:13.547Z,97114.16
2023-03-22T13:24:20.965Z,97116.59
2023-03-22T13:26:54.410Z,97118.75
2023-03-22T13:29:26.123Z,97114.22
2023-03-22T13:31:59.079Z,97107.06
2023-03-22T13:34:45.000Z,97113.53
2023-03-22T13:37:46.085Z,97100.25
2023-03-22T13:40:36.535Z,97107.25
2023-03-22T13:43:33.171Z,97104.91
2023-03-22T13:46:09.686Z,97111.09
2023-03-22T13:48:52.614Z,97099.88
2023-03-22T13:51:25.363Z,97097.88
2023-03-22T13:54:11.673Z,97096.34
2023-03-22T13:56:44.670Z,97097.13
2023-03-22T13:59:27.508Z,97088.97
2023-03-22T14:02:22.206Z,97080.16
2023-03-22T14:04:57.363Z,97084.88
2023-03-22T14:07:45.049Z,97080.47
2023-03-22T14:10:32.741Z,97083.91
2023-03-22T14:13:23.936Z,97073.19
2023-03-22T14:15:55.928Z,97079.91
2023-03-22T14:18:32.140Z,97070.50
2023-03-22T14:21:04.062Z,97084.97
